»·PEaware :: N320PR KEGE-KGPI

N320PR :: KEGE-KGPI

FLIGHT INFORMATION

Flight Status: Arrived
Operator: Privately registered:
United States
More flights under this callsign
Pilot: Anonymous 15267 (15267)
Aircraft: AIRBUS A320
(A320)
More flights by this aircraft type
Origin: KEGE Eagle Co Regl
United States
Destination: KGPI Glacier Park Intl
United States
More flights between these airports :: More routes between these airports
Route: +BEVVR1 SPRKT OCS J52 DBS J9 DLN ANGIL
File this flight plan on PilotEdge
Remarks:
Altitude:
(Current/Filed)
38,000ft
Speed:
(Current/Filed)
450kts
Departed: 06-Sep-18 01:29 PM
Arrived: 06-Sep-18 03:17 PM
Distance/Time
Traveled:
608nm/1:48
Distance/Time
To Go:
Arrived

Flight Plot

Page will automatically refresh every two minutes.

Flight plan parsing failed; only flown route is shown


Map Options




Map Legend


Flown Route
Filed Route
Departure Airport
Arrival Airport
Navaid (VOR, NDB)
Fix

Horizontal Profiles

Position Reports

Time Latitude Longitude Heading Altitude Ground
Speed
06-Sep-18 12:45 39.641071 -106.911647 171 6529ft 0kts
06-Sep-18 12:46 39.641071 -106.911647 171 6529ft 0kts
06-Sep-18 12:47 39.641071 -106.911647 171 6529ft 0kts
06-Sep-18 12:48 39.641071 -106.911647 171 6529ft 0kts
06-Sep-18 12:49 39.641071 -106.911647 171 6529ft 0kts
06-Sep-18 12:50 39.641071 -106.911647 171 6529ft 0kts
06-Sep-18 12:51 39.641071 -106.911647 171 6529ft 0kts
06-Sep-18 12:52 39.641071 -106.911647 171 6529ft 0kts
06-Sep-18 12:53 39.641071 -106.911647 171 6529ft 0kts
06-Sep-18 12:54 39.641071 -106.911647 171 6529ft 0kts
06-Sep-18 12:55 39.641071 -106.911647 171 6529ft 0kts
06-Sep-18 12:56 39.641071 -106.911647 171 6529ft 0kts
06-Sep-18 12:57 39.641071 -106.911647 171 6529ft 0kts
06-Sep-18 12:58 39.641071 -106.911647 171 6529ft 0kts
06-Sep-18 12:59 39.641071 -106.911647 171 6529ft 0kts
06-Sep-18 13:00 39.641071 -106.911647 171 6529ft 0kts
06-Sep-18 13:01 39.641071 -106.911647 171 6529ft 0kts
06-Sep-18 13:02 39.641071 -106.911647 171 6529ft 0kts
06-Sep-18 13:03 39.641071 -106.911647 171 6529ft 0kts
06-Sep-18 13:04 39.641071 -106.911647 171 6529ft 0kts
06-Sep-18 13:05 39.641071 -106.911647 171 6529ft 0kts
06-Sep-18 13:06 39.641071 -106.911647 171 6529ft 0kts
06-Sep-18 13:07 39.641071 -106.911647 171 6529ft 0kts
06-Sep-18 13:08 39.641071 -106.911647 171 6529ft 0kts
06-Sep-18 13:09 39.641071 -106.911647 171 6529ft 0kts
06-Sep-18 13:10 39.641071 -106.911647 171 6529ft 0kts
06-Sep-18 13:11 39.641071 -106.911647 171 6529ft 0kts
06-Sep-18 13:12 39.641071 -106.911647 171 6529ft 0kts
06-Sep-18 13:13 39.641071 -106.911647 171 6529ft 0kts
06-Sep-18 13:14 39.641071 -106.911647 171 6529ft 0kts
06-Sep-18 13:16 39.641071 -106.911647 171 6529ft 0kts
06-Sep-18 13:17 39.641071 -106.911647 171 6529ft 0kts
06-Sep-18 13:18 39.641071 -106.911647 171 6529ft 0kts
06-Sep-18 13:19 39.641071 -106.911647 171 6529ft 0kts
06-Sep-18 13:20 39.641492 -106.911983 90 6529ft 2kts
06-Sep-18 13:21 39.641480 -106.912172 81 6529ft 0kts
06-Sep-18 13:22 39.641480 -106.912171 81 6529ft 0kts
06-Sep-18 13:23 39.641480 -106.912170 81 6529ft 0kts
06-Sep-18 13:24 39.641665 -106.910493 81 6529ft 9kts
06-Sep-18 13:25 39.642502 -106.908250 81 6529ft 9kts
06-Sep-18 13:26 39.643051 -106.903022 81 6529ft 19kts
06-Sep-18 13:27 39.643214 -106.901656 80 6529ft 2kts
06-Sep-18 13:28 39.643311 -106.900908 80 6529ft 0kts
06-Sep-18 13:29 39.643354 -106.900580 77 6529ft 5kts
06-Sep-18 13:30 39.644449 -106.900418 262 6529ft 0kts
06-Sep-18 13:31 39.642688 -106.916341 260 6530ft 157kts
06-Sep-18 13:32 39.615918 -106.964007 215 9126ft 167kts
06-Sep-18 13:33 39.578776 -107.004236 264 10115ft 208kts
06-Sep-18 13:34 39.597219 -107.084465 316 11404ft 268kts
06-Sep-18 13:35 39.666366 -107.104759 13 14148ft 278kts
06-Sep-18 13:36 39.743433 -107.103941 340 16523ft 291kts
06-Sep-18 13:37 39.827790 -107.145019 328 17383ft 355kts
06-Sep-18 13:38 39.909535 -107.230471 320 18821ft 387kts
06-Sep-18 13:39 39.995474 -107.318524 317 20789ft 398kts
06-Sep-18 13:40 40.068715 -107.425430 309 23495ft 382kts
06-Sep-18 13:41 40.137811 -107.532230 309 25196ft 390kts
06-Sep-18 13:42 40.209084 -107.641517 309 26671ft 399kts
06-Sep-18 13:43 40.281957 -107.752784 309 28070ft 407kts
06-Sep-18 13:44 40.361267 -107.860299 323 29293ft 417kts
06-Sep-18 13:45 40.458108 -107.946808 323 30426ft 425kts
06-Sep-18 13:46 40.554636 -108.036912 323 31831ft 422kts
06-Sep-18 13:47 40.651841 -108.126968 322 32483ft 437kts
06-Sep-18 13:48 40.753488 -108.221731 323 32835ft 458kts
06-Sep-18 13:49 40.857053 -108.318458 322 34161ft 451kts
06-Sep-18 13:50 40.959275 -108.414475 322 35193ft 449kts
06-Sep-18 13:51 41.060998 -108.510388 322 36104ft 448kts
06-Sep-18 13:52 41.162076 -108.605964 322 36889ft 446kts
06-Sep-18 13:53 41.262436 -108.701314 322 37701ft 440kts
06-Sep-18 13:54 41.360921 -108.795186 321 38413ft 433kts
06-Sep-18 13:55 41.460001 -108.890025 321 38421ft 443kts
06-Sep-18 13:56 41.560553 -108.986657 321 38424ft 445kts
06-Sep-18 13:57 41.654796 -109.092876 315 38372ft 442kts
06-Sep-18 13:58 41.745629 -109.203397 315 38376ft 440kts
06-Sep-18 13:59 41.836995 -109.314631 315 38418ft 447kts
06-Sep-18 14:00 41.929068 -109.427172 315 38469ft 447kts
06-Sep-18 14:01 42.020683 -109.539610 315 38476ft 445kts
06-Sep-18 14:02 42.111840 -109.651961 315 38481ft 443kts
06-Sep-18 14:03 42.202201 -109.763779 315 38484ft 441kts
06-Sep-18 14:04 42.292461 -109.875982 315 38497ft 440kts
06-Sep-18 14:05 42.382489 -109.988271 315 38477ft 440kts
06-Sep-18 14:06 42.472329 -110.100847 314 38499ft 440kts
06-Sep-18 14:07 42.562160 -110.213797 314 38504ft 441kts
06-Sep-18 14:08 42.651972 -110.327244 314 38498ft 441kts
06-Sep-18 14:09 42.741872 -110.441269 314 38480ft 442kts
06-Sep-18 14:10 42.831743 -110.555760 314 38456ft 442kts
06-Sep-18 14:11 42.921533 -110.670587 314 38449ft 442kts
06-Sep-18 14:12 43.010984 -110.785470 314 38439ft 441kts
06-Sep-18 14:13 43.099984 -110.900283 314 38440ft 441kts
06-Sep-18 14:14 43.189097 -111.015711 313 38427ft 440kts
06-Sep-18 14:15 43.278000 -111.131284 313 38428ft 440kts
06-Sep-18 14:16 43.366687 -111.247125 313 38401ft 440kts
06-Sep-18 14:17 43.455331 -111.363411 313 38384ft 440kts
06-Sep-18 14:18 43.543898 -111.480133 313 38349ft 441kts
06-Sep-18 14:19 43.632470 -111.597258 313 38327ft 441kts
06-Sep-18 14:20 43.720780 -111.714648 313 38318ft 440kts
06-Sep-18 14:21 43.808670 -111.831894 313 38317ft 440kts
06-Sep-18 14:22 43.896645 -111.949803 313 38313ft 440kts
06-Sep-18 14:23 43.984422 -112.067983 313 38313ft 440kts
06-Sep-18 14:24 44.073273 -112.185002 320 38303ft 442kts
06-Sep-18 14:25 44.190755 -112.239077 346 38242ft 454kts
06-Sep-18 14:26 44.314585 -112.273863 344 38318ft 453kts
06-Sep-18 14:27 44.438417 -112.309546 345 38326ft 455kts
06-Sep-18 14:28 44.562323 -112.345519 345 38330ft 455kts
06-Sep-18 14:29 44.686461 -112.381581 345 38334ft 455kts
06-Sep-18 14:30 44.810392 -112.417768 345 38336ft 454kts
06-Sep-18 14:31 44.934103 -112.454062 345 38336ft 453kts
06-Sep-18 14:32 45.057353 -112.490407 345 38332ft 452kts
06-Sep-18 14:33 45.180423 -112.526806 345 38323ft 451kts
06-Sep-18 14:34 45.300237 -112.575259 335 38311ft 446kts
06-Sep-18 14:35 45.415055 -112.641130 335 38289ft 446kts
06-Sep-18 14:36 45.530486 -112.706280 335 38295ft 445kts
06-Sep-18 14:37 45.645799 -112.771944 335 38275ft 446kts
06-Sep-18 14:38 45.760933 -112.837794 335 38266ft 446kts
06-Sep-18 14:39 45.876158 -112.903964 335 38264ft 445kts
06-Sep-18 14:40 45.991224 -112.970379 335 38257ft 445kts
06-Sep-18 14:41 46.105598 -113.036644 335 38315ft 443kts
06-Sep-18 14:42 46.220099 -113.103333 335 38300ft 444kts
06-Sep-18 14:43 46.334571 -113.170261 335 38267ft 444kts
06-Sep-18 14:44 46.448632 -113.237308 335 37216ft 443kts
06-Sep-18 14:45 46.563166 -113.304876 335 36226ft 444kts
06-Sep-18 14:46 46.677876 -113.372862 335 35236ft 446kts
06-Sep-18 14:47 46.792962 -113.441448 336 34245ft 447kts
06-Sep-18 14:47 46.888197 -113.498387 335 33429ft 449kts
06-Sep-18 14:49 47.024326 -113.580168 335 32181ft 451kts
06-Sep-18 14:50 47.139635 -113.649814 335 29792ft 439kts
06-Sep-18 14:50 47.231542 -113.705666 333 26941ft 423kts
06-Sep-18 14:51 47.330399 -113.792415 325 23620ft 404kts
06-Sep-18 14:52 47.423998 -113.876203 325 20536ft 384kts
06-Sep-18 14:53 47.510286 -113.954023 324 18854ft 335kts
06-Sep-18 14:55 47.600234 -114.035614 323 17197ft 319kts
06-Sep-18 14:55 47.662827 -114.092491 324 15893ft 314kts
06-Sep-18 14:56 47.728177 -114.171061 296 14354ft 298kts
06-Sep-18 14:57 47.765977 -114.273387 296 13537ft 268kts
06-Sep-18 14:58 47.802792 -114.369734 296 12153ft 265kts
06-Sep-18 14:59 47.839124 -114.465533 296 10717ft 266kts
06-Sep-18 15:00 47.888156 -114.544672 327 9499ft 261kts
06-Sep-18 15:01 47.955092 -114.573295 359 8711ft 236kts
06-Sep-18 15:02 48.014884 -114.552809 26 8021ft 213kts
06-Sep-18 15:03 48.062308 -114.512267 30 7372ft 188kts
06-Sep-18 15:04 48.104846 -114.468944 34 6389ft 183kts
06-Sep-18 15:05 48.141053 -114.431541 34 5767ft 155kts
06-Sep-18 15:06 48.175497 -114.395858 34 5203ft 150kts
06-Sep-18 15:07 48.209875 -114.360196 36 5202ft 150kts
06-Sep-18 15:08 48.243684 -114.325552 36 4429ft 144kts
06-Sep-18 15:09 48.277110 -114.290550 32 4105ft 152kts
06-Sep-18 15:10 48.315847 -114.249417 31 4558ft 192kts
06-Sep-18 15:11 48.365330 -114.216486 347 4739ft 195kts
06-Sep-18 15:12 48.371376 -114.276287 214 4502ft 195kts
06-Sep-18 15:13 48.327661 -114.326086 215 4293ft 204kts
06-Sep-18 15:14 48.283137 -114.373161 197 4395ft 187kts
06-Sep-18 15:15 48.252615 -114.333914 98 4002ft 154kts
06-Sep-18 15:16 48.278249 -114.289152 33 3483ft 151kts
06-Sep-18 15:17 48.310214 -114.255763 33 2983ft 61kts
06-Sep-18 15:18 48.311997 -114.253044 91 2983ft 14kts
06-Sep-18 15:19 48.308858 -114.255137 215 2983ft 12kts
06-Sep-18 15:20 48.307611 -114.253905 126 2983ft 2kts

Navigation Log

Ident Type
Flight plan parsing failed, navigation log unavailable